WXM80 ListenWXM80 Stop

You find our weather info also at:

UK Metoffice

WeatherCloud

Weather Underground

Northeastern Weather Network

AWEKAS

Citizen Weather Observer Program (CWOP)

HAMweather, WeatherForYou, PWS Weather


Weather Underground History page Text

Daily Summary for January 25, 2018 Units:  Both    English   Metric
« Previous Day
Next Day »
Daily Weekly Monthly Yearly Custom
  High: Low: Average:
Temperature: TemperatureF °F /  -17.8 °C 23.5 °F /  -4.7 °C 28.7 °F /  -1.8 °C
Dew Point: DewpointF °F /  -17.8 °C 5.9 °F /  -14.5 °C 11.9 °F /  -11.2 °C
Humidity: Humidity % 32 % 50 %
Wind Speed: WindSpeedMPH mph /  0 km/h - 4.6 mph /  7.4 km/h
Wind Gust: WindSpeedGustMPH mph /  0 km/h - -
Wind:- - West
Pressure: PressureIn in /  0 hPa 29.90 in /  1012.4 hPa -
Precipitation: 0.00 in /  0 mm    
Historical Graphs
 
 
Tabular Data for January 25, 2018
Time Temperature Dew Point Pressure Wind Wind Speed Wind Gust Humidity Rainfall Rate (Hourly)
TemperatureF °F /  -17.8 °C DewpointF °F /  -17.8 °C PressureIn in /  0 hPa Calm     Humidity % HourlyPrecipIn in /  0 mm
00:04 28.0 °F /  -2.2 °C 19.1 °F /  -7.2 °C 29.90 in /  1012.4 hPa NW 3.6 mph /  5.8 km/h 8.0 mph /  12.9 km/h 69 % 0.00 in /  0 mm
00:09 27.9 °F /  -2.3 °C 19.0 °F /  -7.2 °C 29.91 in /  1012.8 hPa North 5.2 mph /  8.4 km/h 11.5 mph /  18.5 km/h 69 % 0.00 in /  0 mm
00:14 27.8 °F /  -2.3 °C 18.9 °F /  -7.3 °C 29.90 in /  1012.4 hPa NW 4.3 mph /  6.9 km/h 10.4 mph /  16.7 km/h 69 % 0.00 in /  0 mm
00:19 27.7 °F /  -2.4 °C 18.8 °F /  -7.3 °C 29.91 in /  1012.8 hPa NNW 3.5 mph /  5.6 km/h 5.8 mph /  9.3 km/h 69 % 0.00 in /  0 mm
00:24 27.6 °F /  -2.4 °C 19.1 °F /  -7.2 °C 29.90 in /  1012.4 hPa North 6.9 mph /  11.1 km/h 9.0 mph /  14.5 km/h 70 % 0.00 in /  0 mm
00:29 27.4 °F /  -2.6 °C 18.9 °F /  -7.3 °C 29.90 in /  1012.4 hPa NNW 8.9 mph /  14.3 km/h 12.0 mph /  19.3 km/h 70 % 0.00 in /  0 mm
00:35 27.3 °F /  -2.6 °C 18.8 °F /  -7.3 °C 29.90 in /  1012.4 hPa NNW 6.4 mph /  10.3 km/h 10.4 mph /  16.7 km/h 70 % 0.00 in /  0 mm
00:40 27.1 °F /  -2.7 °C 18.3 °F /  -7.6 °C 29.90 in /  1012.4 hPa North 4.5 mph /  7.2 km/h 10.4 mph /  16.7 km/h 69 % 0.00 in /  0 mm
00:45 27.1 °F /  -2.7 °C 18.3 °F /  -7.6 °C 29.90 in /  1012.4 hPa NNW 6.3 mph /  10.1 km/h 13.8 mph /  22.2 km/h 69 % 0.00 in /  0 mm
00:50 26.9 °F /  -2.8 °C 18.1 °F /  -7.7 °C 29.90 in /  1012.4 hPa NW 6.3 mph /  10.1 km/h 13.8 mph /  22.2 km/h 69 % 0.00 in /  0 mm
00:55 26.8 °F /  -2.9 °C 18.0 °F /  -7.8 °C 29.90 in /  1012.4 hPa NNW 5.3 mph /  8.5 km/h 10.4 mph /  16.7 km/h 69 % 0.00 in /  0 mm
01:00 26.6 °F /  -3 °C 17.8 °F /  -7.9 °C 29.90 in /  1012.4 hPa NNE 6.8 mph /  10.9 km/h 10.4 mph /  16.7 km/h 69 % 0.00 in /  0 mm
01:05 26.5 °F /  -3.1 °C 17.7 °F /  -7.9 °C 29.90 in /  1012.4 hPa NW 2.7 mph /  4.3 km/h 8.1 mph /  13 km/h 69 % 0.00 in /  0 mm
01:10 26.3 °F /  -3.2 °C 17.5 °F /  -8.1 °C 29.90 in /  1012.4 hPa WNW 3.5 mph /  5.6 km/h 11.5 mph /  18.5 km/h 69 % 0.00 in /  0 mm
01:15 26.2 °F /  -3.2 °C 17.4 °F /  -8.1 °C 29.90 in /  1012.4 hPa North 6.3 mph /  10.1 km/h 15.0 mph /  24.1 km/h 69 % 0.00 in /  0 mm
01:20 26.1 °F /  -3.3 °C 17.3 °F /  -8.2 °C 29.91 in /  1012.8 hPa NNW 4.4 mph /  7.1 km/h 7.0 mph /  11.3 km/h 69 % 0.00 in /  0 mm
01:25 25.9 °F /  -3.4 °C 16.8 °F /  -8.4 °C 29.91 in /  1012.8 hPa NNW 7.5 mph /  12.1 km/h 13.8 mph /  22.2 km/h 68 % 0.00 in /  0 mm
01:30 25.8 °F /  -3.4 °C 16.7 °F /  -8.5 °C 29.91 in /  1012.8 hPa North 7.3 mph /  11.7 km/h 10.4 mph /  16.7 km/h 68 % 0.00 in /  0 mm
01:35 25.8 °F /  -3.4 °C 17.0 °F /  -8.3 °C 29.91 in /  1012.8 hPa NNW 7.5 mph /  12.1 km/h 11.5 mph /  18.5 km/h 69 % 0.00 in /  0 mm
01:40 25.7 °F /  -3.5 °C 16.9 °F /  -8.4 °C 29.92 in /  1013.1 hPa NW 6.5 mph /  10.5 km/h 15.0 mph /  24.1 km/h 69 % 0.00 in /  0 mm
01:45 25.6 °F /  -3.6 °C 16.5 °F /  -8.6 °C 29.92 in /  1013.1 hPa NNW 4.9 mph /  7.9 km/h 8.1 mph /  13 km/h 68 % 0.00 in /  0 mm
01:50 25.4 °F /  -3.7 °C 15.6 °F /  -9.1 °C 29.92 in /  1013.1 hPa NW 4.5 mph /  7.2 km/h 9.2 mph /  14.8 km/h 66 % 0.00 in /  0 mm
01:55 25.3 °F /  -3.7 °C 15.2 °F /  -9.3 °C 29.92 in /  1013.1 hPa NNW 4.7 mph /  7.6 km/h 12.7 mph /  20.4 km/h 65 % 0.00 in /  0 mm
02:00 25.2 °F /  -3.8 °C 13.6 °F /  -10.2 °C 29.93 in /  1013.4 hPa North 6.7 mph /  10.8 km/h 9.0 mph /  14.5 km/h 61 % 0.00 in /  0 mm
02:05 25.1 °F /  -3.8 °C 13.5 °F /  -10.3 °C 29.93 in /  1013.4 hPa NNW 3.4 mph /  5.5 km/h 9.2 mph /  14.8 km/h 61 % 0.00 in /  0 mm
02:10 24.9 °F /  -3.9 °C 12.6 °F /  -10.8 °C 29.93 in /  1013.4 hPa NE 3.3 mph /  5.3 km/h 9.2 mph /  14.8 km/h 59 % 0.00 in /  0 mm
02:15 24.8 °F /  -4 °C 12.9 °F /  -10.6 °C 29.93 in /  1013.4 hPa NE 5.4 mph /  8.7 km/h 11.5 mph /  18.5 km/h 60 % 0.00 in /  0 mm
02:20 24.8 °F /  -4 °C 12.9 °F /  -10.6 °C 29.94 in /  1013.8 hPa NNE 4.8 mph /  7.7 km/h 6.0 mph /  9.7 km/h 60 % 0.00 in /  0 mm
02:25 24.7 °F /  -4.1 °C 12.8 °F /  -10.7 °C 29.94 in /  1013.8 hPa NNE 2.1 mph /  3.4 km/h 6.9 mph /  11.1 km/h 60 % 0.00 in /  0 mm
02:31 24.6 °F /  -4.1 °C 13.4 °F /  -10.3 °C 29.94 in /  1013.8 hPa WNW 4.7 mph /  7.6 km/h 4.7 mph /  7.6 km/h 62 % 0.00 in /  0 mm
02:36 24.5 °F /  -4.2 °C 13.0 °F /  -10.6 °C 29.94 in /  1013.8 hPa NNW 5.0 mph /  8 km/h 8.0 mph /  12.9 km/h 61 % 0.00 in /  0 mm
02:41 24.5 °F /  -4.2 °C 13.7 °F /  -10.2 °C 29.95 in /  1014.1 hPa NNW 3.0 mph /  4.8 km/h 6.0 mph /  9.7 km/h 63 % 0.00 in /  0 mm
02:46 24.4 °F /  -4.2 °C 13.6 °F /  -10.2 °C 29.95 in /  1014.1 hPa NW 3.0 mph /  4.8 km/h 10.0 mph /  16.1 km/h 63 % 0.00 in /  0 mm
02:51 24.4 °F /  -4.2 °C 14.3 °F /  -9.8 °C 29.95 in /  1014.1 hPa NW 4.0 mph /  6.4 km/h 9.0 mph /  14.5 km/h 65 % 0.00 in /  0 mm
02:56 24.4 °F /  -4.2 °C 14.3 °F /  -9.8 °C 29.95 in /  1014.1 hPa NW 5.0 mph /  8 km/h 11.0 mph /  17.7 km/h 65 % 0.00 in /  0 mm
03:01 24.4 °F /  -4.2 °C 14.7 °F /  -9.6 °C 29.95 in /  1014.1 hPa NW 1.7 mph /  2.7 km/h 5.8 mph /  9.3 km/h 66 % 0.00 in /  0 mm
03:06 24.4 °F /  -4.2 °C 15.0 °F /  -9.4 °C 29.95 in /  1014.1 hPa NW 5.4 mph /  8.7 km/h 11.5 mph /  18.5 km/h 67 % 0.00 in /  0 mm
03:11 24.3 °F /  -4.3 °C 14.6 °F /  -9.7 °C 29.95 in /  1014.1 hPa NW 2.3 mph /  3.7 km/h 6.9 mph /  11.1 km/h 66 % 0.00 in /  0 mm
03:16 24.3 °F /  -4.3 °C 14.6 °F /  -9.7 °C 29.96 in /  1014.4 hPa NNW 3.6 mph /  5.8 km/h 8.1 mph /  13 km/h 66 % 0.00 in /  0 mm
03:21 24.2 °F /  -4.3 °C 14.5 °F /  -9.7 °C 29.96 in /  1014.4 hPa NW 6.1 mph /  9.8 km/h 10.4 mph /  16.7 km/h 66 % 0.00 in /  0 mm
03:26 24.2 °F /  -4.3 °C 14.8 °F /  -9.6 °C 29.96 in /  1014.4 hPa NW 5.4 mph /  8.7 km/h 9.2 mph /  14.8 km/h 67 % 0.00 in /  0 mm
03:31 24.2 °F /  -4.3 °C 15.2 °F /  -9.3 °C 29.96 in /  1014.4 hPa WNW 5.7 mph /  9.2 km/h 8.1 mph /  13 km/h 68 % 0.00 in /  0 mm
03:36 24.2 °F /  -4.3 °C 14.8 °F /  -9.6 °C 29.96 in /  1014.4 hPa NW 2.7 mph /  4.3 km/h 5.8 mph /  9.3 km/h 67 % 0.00 in /  0 mm
03:41 24.0 °F /  -4.4 °C 14.3 °F /  -9.8 °C 29.96 in /  1014.4 hPa NW 5.2 mph /  8.4 km/h 12.7 mph /  20.4 km/h 66 % 0.00 in /  0 mm
03:46 24.0 °F /  -4.4 °C 14.6 °F /  -9.7 °C 29.97 in /  1014.8 hPa West 3.3 mph /  5.3 km/h 8.0 mph /  12.9 km/h 67 % 0.00 in /  0 mm
03:51 24.0 °F /  -4.4 °C 15.0 °F /  -9.4 °C 29.97 in /  1014.8 hPa NW 5.5 mph /  8.9 km/h 9.2 mph /  14.8 km/h 68 % 0.00 in /  0 mm
03:56 23.9 °F /  -4.5 °C 14.9 °F /  -9.5 °C 29.97 in /  1014.8 hPa West 4.1 mph /  6.6 km/h 8.0 mph /  12.9 km/h 68 % 0.00 in /  0 mm
04:01 23.9 °F /  -4.5 °C 15.2 °F /  -9.3 °C 29.98 in /  1015.1 hPa NNW 2.9 mph /  4.7 km/h 5.8 mph /  9.3 km/h 69 % 0.00 in /  0 mm
04:06 23.8 °F /  -4.6 °C 15.1 °F /  -9.4 °C 29.97 in /  1014.8 hPa WNW 3.4 mph /  5.5 km/h 4.6 mph /  7.4 km/h 69 % 0.00 in /  0 mm
04:11 23.8 °F /  -4.6 °C 15.1 °F /  -9.4 °C 29.97 in /  1014.8 hPa WNW 4.7 mph /  7.6 km/h 11.5 mph /  18.5 km/h 69 % 0.00 in /  0 mm
04:16 23.8 °F /  -4.6 °C 15.1 °F /  -9.4 °C 29.97 in /  1014.8 hPa West 4.9 mph /  7.9 km/h 11.5 mph /  18.5 km/h 69 % 0.00 in /  0 mm
04:21 23.9 °F /  -4.5 °C 15.2 °F /  -9.3 °C 29.98 in /  1015.1 hPa NW 5.8 mph /  9.3 km/h 11.5 mph /  18.5 km/h 69 % 0.00 in /  0 mm
04:26 23.8 °F /  -4.6 °C 14.8 °F /  -9.6 °C 29.99 in /  1015.5 hPa WNW 2.7 mph /  4.3 km/h 8.0 mph /  12.9 km/h 68 % 0.00 in /  0 mm
04:31 23.8 °F /  -4.6 °C 14.8 °F /  -9.6 °C 29.99 in /  1015.5 hPa NNW 3.5 mph /  5.6 km/h 8.0 mph /  12.9 km/h 68 % 0.00 in /  0 mm
04:36 23.8 °F /  -4.6 °C 14.8 °F /  -9.6 °C 30.00 in /  1015.8 hPa WNW 1.6 mph /  2.6 km/h 10.4 mph /  16.7 km/h 68 % 0.00 in /  0 mm
04:41 23.8 °F /  -4.6 °C 14.8 °F /  -9.6 °C 30.00 in /  1015.8 hPa WNW 4.1 mph /  6.6 km/h 10.4 mph /  16.7 km/h 68 % 0.00 in /  0 mm
04:46 23.8 °F /  -4.6 °C 14.4 °F /  -9.8 °C 30.00 in /  1015.8 hPa NW 5.3 mph /  8.5 km/h 11.5 mph /  18.5 km/h 67 % 0.00 in /  0 mm
04:51 23.7 °F /  -4.6 °C 14.0 °F /  -10 °C 30.00 in /  1015.8 hPa WNW 7.4 mph /  11.9 km/h 13.8 mph /  22.2 km/h 66 % 0.00 in /  0 mm
04:57 23.7 °F /  -4.6 °C 14.0 °F /  -10 °C 30.00 in /  1015.8 hPa NW 4.6 mph /  7.4 km/h 8.1 mph /  13 km/h 66 % 0.00 in /  0 mm
05:02 23.6 °F /  -4.7 °C 13.9 °F /  -10.1 °C 30.00 in /  1015.8 hPa WNW 5.8 mph /  9.3 km/h 9.0 mph /  14.5 km/h 66 % 0.00 in /  0 mm
05:07 23.6 °F /  -4.7 °C 13.9 °F /  -10.1 °C 30.00 in /  1015.8 hPa WNW 6.3 mph /  10.1 km/h 10.4 mph /  16.7 km/h 66 % 0.00 in /  0 mm
05:12 23.6 °F /  -4.7 °C 13.9 °F /  -10.1 °C 30.00 in /  1015.8 hPa West 5.2 mph /  8.4 km/h 10.4 mph /  16.7 km/h 66 % 0.00 in /  0 mm
05:17 23.6 °F /  -4.7 °C 13.9 °F /  -10.1 °C 30.01 in /  1016.1 hPa West 5.5 mph /  8.9 km/h 11.5 mph /  18.5 km/h 66 % 0.00 in /  0 mm
05:22 23.6 °F /  -4.7 °C 13.5 °F /  -10.3 °C 30.01 in /  1016.1 hPa West 4.2 mph /  6.8 km/h 6.9 mph /  11.1 km/h 65 % 0.00 in /  0 mm
05:27 23.5 °F /  -4.7 °C 13.5 °F /  -10.3 °C 30.02 in /  1016.5 hPa WSW 7.5 mph /  12.1 km/h 10.4 mph /  16.7 km/h 65 % 0.00 in /  0 mm
05:32 23.6 °F /  -4.7 °C 13.5 °F /  -10.3 °C 30.01 in /  1016.1 hPa West 6.0 mph /  9.7 km/h 10.4 mph /  16.7 km/h 65 % 0.00 in /  0 mm
05:37 23.5 °F /  -4.7 °C 13.5 °F /  -10.3 °C 30.01 in /  1016.1 hPa WNW 4.2 mph /  6.8 km/h 8.1 mph /  13 km/h 65 % 0.00 in /  0 mm
05:42 23.6 °F /  -4.7 °C 13.9 °F /  -10.1 °C 30.01 in /  1016.1 hPa NW 5.6 mph /  9 km/h 9.2 mph /  14.8 km/h 66 % 0.00 in /  0 mm
05:47 23.6 °F /  -4.7 °C 13.9 °F /  -10.1 °C 30.01 in /  1016.1 hPa WNW 5.4 mph /  8.7 km/h 11.5 mph /  18.5 km/h 66 % 0.00 in /  0 mm
05:52 23.6 °F /  -4.7 °C 13.9 °F /  -10.1 °C 30.02 in /  1016.5 hPa WNW 6.9 mph /  11.1 km/h 11.5 mph /  18.5 km/h 66 % 0.00 in /  0 mm
05:57 23.6 °F /  -4.7 °C 14.2 °F /  -9.9 °C 30.02 in /  1016.5 hPa WNW 2.3 mph /  3.7 km/h 8.1 mph /  13 km/h 67 % 0.00 in /  0 mm
06:02 23.7 °F /  -4.6 °C 14.3 °F /  -9.8 °C 30.02 in /  1016.5 hPa NW 4.3 mph /  6.9 km/h 11.5 mph /  18.5 km/h 67 % 0.00 in /  0 mm
06:07 23.7 °F /  -4.6 °C 14.3 °F /  -9.8 °C 30.03 in /  1016.8 hPa WNW 4.1 mph /  6.6 km/h 8.1 mph /  13 km/h 67 % 0.00 in /  0 mm
06:12 23.7 °F /  -4.6 °C 14.7 °F /  -9.6 °C 30.03 in /  1016.8 hPa WNW 5.2 mph /  8.4 km/h 10.0 mph /  16.1 km/h 68 % 0.00 in /  0 mm
06:17 23.7 °F /  -4.6 °C 14.7 °F /  -9.6 °C 30.03 in /  1016.8 hPa WNW 4.1 mph /  6.6 km/h 10.4 mph /  16.7 km/h 68 % 0.00 in /  0 mm
06:22 23.8 °F /  -4.6 °C 14.8 °F /  -9.6 °C 30.03 in /  1016.8 hPa WNW 6.1 mph /  9.8 km/h 11.5 mph /  18.5 km/h 68 % 0.00 in /  0 mm
06:27 23.8 °F /  -4.6 °C 15.1 °F /  -9.4 °C 30.03 in /  1016.8 hPa NW 4.0 mph /  6.4 km/h 6.9 mph /  11.1 km/h 69 % 0.00 in /  0 mm
06:32 23.9 °F /  -4.5 °C 14.9 °F /  -9.5 °C 30.04 in /  1017.2 hPa West 4.0 mph /  6.4 km/h 6.9 mph /  11.1 km/h 68 % 0.00 in /  0 mm
06:37 23.9 °F /  -4.5 °C 14.9 °F /  -9.5 °C 30.05 in /  1017.5 hPa West 4.5 mph /  7.2 km/h 7.0 mph /  11.3 km/h 68 % 0.00 in /  0 mm
06:42 23.9 °F /  -4.5 °C 14.9 °F /  -9.5 °C 30.05 in /  1017.5 hPa WNW 3.9 mph /  6.3 km/h 10.0 mph /  16.1 km/h 68 % 0.00 in /  0 mm
06:47 23.9 °F /  -4.5 °C 14.9 °F /  -9.5 °C 30.05 in /  1017.5 hPa WNW 5.5 mph /  8.9 km/h 8.0 mph /  12.9 km/h 68 % 0.00 in /  0 mm
06:52 24.0 °F /  -4.4 °C 15.0 °F /  -9.4 °C 30.05 in /  1017.5 hPa WNW 4.0 mph /  6.4 km/h 6.9 mph /  11.1 km/h 68 % 0.00 in /  0 mm
06:57 24.0 °F /  -4.4 °C 15.0 °F /  -9.4 °C 30.05 in /  1017.5 hPa NW 1.2 mph /  1.9 km/h 9.2 mph /  14.8 km/h 68 % 0.00 in /  0 mm
07:03 24.0 °F /  -4.4 °C 15.0 °F /  -9.4 °C 30.05 in /  1017.5 hPa NW 5.6 mph /  9 km/h 6.9 mph /  11.1 km/h 68 % 0.00 in /  0 mm
07:08 23.9 °F /  -4.5 °C 14.9 °F /  -9.5 °C 30.05 in /  1017.5 hPa NW 3.5 mph /  5.6 km/h 6.9 mph /  11.1 km/h 68 % 0.00 in /  0 mm
07:13 23.9 °F /  -4.5 °C 15.2 °F /  -9.3 °C 30.05 in /  1017.5 hPa NW 1.0 mph /  1.6 km/h 4.6 mph /  7.4 km/h 69 % 0.00 in /  0 mm
07:18 23.9 °F /  -4.5 °C 15.2 °F /  -9.3 °C 30.06 in /  1017.8 hPa NNW 5.1 mph /  8.2 km/h 9.2 mph /  14.8 km/h 69 % 0.00 in /  0 mm
07:23 23.9 °F /  -4.5 °C 14.9 °F /  -9.5 °C 30.06 in /  1017.8 hPa WNW 6.0 mph /  9.7 km/h 10.4 mph /  16.7 km/h 68 % 0.00 in /  0 mm
07:28 24.0 °F /  -4.4 °C 15.3 °F /  -9.3 °C 30.06 in /  1017.8 hPa NW 4.6 mph /  7.4 km/h 8.1 mph /  13 km/h 69 % 0.00 in /  0 mm
07:33 24.0 °F /  -4.4 °C 15.3 °F /  -9.3 °C 30.07 in /  1018.2 hPa NNW 6.2 mph /  10 km/h 8.1 mph /  13 km/h 69 % 0.00 in /  0 mm
07:38 24.2 °F /  -4.3 °C 15.5 °F /  -9.2 °C 30.07 in /  1018.2 hPa NNW 3.7 mph /  6 km/h 10.4 mph /  16.7 km/h 69 % 0.00 in /  0 mm
07:43 24.2 °F /  -4.3 °C 14.8 °F /  -9.6 °C 30.07 in /  1018.2 hPa North 2.2 mph /  3.5 km/h 5.0 mph /  8 km/h 67 % 0.00 in /  0 mm
07:48 24.3 °F /  -4.3 °C 15.6 °F /  -9.1 °C 30.07 in /  1018.2 hPa NW 4.8 mph /  7.7 km/h 10.4 mph /  16.7 km/h 69 % 0.00 in /  0 mm
07:53 24.4 °F /  -4.2 °C 15.3 °F /  -9.3 °C 30.07 in /  1018.2 hPa NNW 4.3 mph /  6.9 km/h 10.0 mph /  16.1 km/h 68 % 0.00 in /  0 mm
07:58 24.5 °F /  -4.2 °C 15.4 °F /  -9.2 °C 30.07 in /  1018.2 hPa WNW 4.8 mph /  7.7 km/h 12.0 mph /  19.3 km/h 68 % 0.00 in /  0 mm
08:03 24.7 °F /  -4.1 °C 15.6 °F /  -9.1 °C 30.07 in /  1018.2 hPa NW 5.2 mph /  8.4 km/h 8.1 mph /  13 km/h 68 % 0.00 in /  0 mm
08:08 24.8 °F /  -4 °C 15.4 °F /  -9.2 °C 30.07 in /  1018.2 hPa NW 2.9 mph /  4.7 km/h 6.9 mph /  11.1 km/h 67 % 0.00 in /  0 mm
08:13 25.0 °F /  -3.9 °C 15.2 °F /  -9.3 °C 30.08 in /  1018.5 hPa WSW 3.8 mph /  6.1 km/h 7.0 mph /  11.3 km/h 66 % 0.00 in /  0 mm
08:18 25.2 °F /  -3.8 °C 15.4 °F /  -9.2 °C 30.08 in /  1018.5 hPa NW 5.8 mph /  9.3 km/h 9.2 mph /  14.8 km/h 66 % 0.00 in /  0 mm
08:23 25.4 °F /  -3.7 °C 15.6 °F /  -9.1 °C 30.08 in /  1018.5 hPa NW 5.6 mph /  9 km/h 9.2 mph /  14.8 km/h 66 % 0.00 in /  0 mm
08:28 25.6 °F /  -3.6 °C 15.8 °F /  -9 °C 30.08 in /  1018.5 hPa NW 7.9 mph /  12.7 km/h 11.5 mph /  18.5 km/h 66 % 0.00 in /  0 mm
08:33 25.8 °F /  -3.4 °C 15.3 °F /  -9.3 °C 30.08 in /  1018.5 hPa NW 5.1 mph /  8.2 km/h 9.2 mph /  14.8 km/h 64 % 0.00 in /  0 mm
08:38 26.0 °F /  -3.3 °C 15.8 °F /  -9 °C 30.08 in /  1018.5 hPa NNW 4.9 mph /  7.9 km/h 9.2 mph /  14.8 km/h 65 % 0.00 in /  0 mm
08:43 26.2 °F /  -3.2 °C 15.7 °F /  -9.1 °C 30.09 in /  1018.8 hPa NNW 6.0 mph /  9.7 km/h 12.7 mph /  20.4 km/h 64 % 0.00 in /  0 mm
08:48 26.4 °F /  -3.1 °C 15.5 °F /  -9.2 °C 30.09 in /  1018.8 hPa NW 5.9 mph /  9.5 km/h 11.5 mph /  18.5 km/h 63 % 0.00 in /  0 mm
08:53 26.8 °F /  -2.9 °C 16.2 °F /  -8.8 °C 30.09 in /  1018.8 hPa WNW 6.9 mph /  11.1 km/h 10.0 mph /  16.1 km/h 64 % 0.00 in /  0 mm
08:58 27.1 °F /  -2.7 °C 15.8 °F /  -9 °C 30.09 in /  1018.8 hPa NNW 7.0 mph /  11.3 km/h 11.5 mph /  18.5 km/h 62 % 0.00 in /  0 mm
09:03 27.6 °F /  -2.4 °C 16.6 °F /  -8.6 °C 30.09 in /  1018.8 hPa WNW 2.1 mph /  3.4 km/h 4.6 mph /  7.4 km/h 63 % 0.00 in /  0 mm
09:09 27.8 °F /  -2.3 °C 16.1 °F /  -8.8 °C 30.09 in /  1018.8 hPa WNW 2.8 mph /  4.5 km/h 9.2 mph /  14.8 km/h 61 % 0.00 in /  0 mm
09:14 27.9 °F /  -2.3 °C 15.8 °F /  -9 °C 30.09 in /  1018.8 hPa NW 5.8 mph /  9.3 km/h 11.5 mph /  18.5 km/h 60 % 0.00 in /  0 mm
09:19 28.0 °F /  -2.2 °C 15.9 °F /  -8.9 °C 30.10 in /  1019.2 hPa NW 4.5 mph /  7.2 km/h 8.1 mph /  13 km/h 60 % 0.00 in /  0 mm
09:24 28.3 °F /  -2.1 °C 16.6 °F /  -8.6 °C 30.10 in /  1019.2 hPa NNW 6.0 mph /  9.7 km/h 9.2 mph /  14.8 km/h 61 % 0.00 in /  0 mm
09:29 28.6 °F /  -1.9 °C 16.1 °F /  -8.8 °C 30.10 in /  1019.2 hPa North 4.4 mph /  7.1 km/h 10.4 mph /  16.7 km/h 59 % 0.00 in /  0 mm
09:34 28.9 °F /  -1.7 °C 16.0 °F /  -8.9 °C 30.10 in /  1019.2 hPa NNW 4.4 mph /  7.1 km/h 11.5 mph /  18.5 km/h 58 % 0.00 in /  0 mm
09:39 29.2 °F /  -1.6 °C 16.2 °F /  -8.8 °C 30.11 in /  1019.5 hPa North 4.5 mph /  7.2 km/h 11.5 mph /  18.5 km/h 58 % 0.00 in /  0 mm
09:44 29.5 °F /  -1.4 °C 16.5 °F /  -8.6 °C 30.11 in /  1019.5 hPa NNW 5.0 mph /  8 km/h 9.2 mph /  14.8 km/h 58 % 0.00 in /  0 mm
09:49 29.6 °F /  -1.3 °C 16.2 °F /  -8.8 °C 30.11 in /  1019.5 hPa NNW 5.2 mph /  8.4 km/h 10.4 mph /  16.7 km/h 57 % 0.00 in /  0 mm
09:54 29.9 °F /  -1.2 °C 16.1 °F /  -8.8 °C 30.11 in /  1019.5 hPa NNW 2.9 mph /  4.7 km/h 6.9 mph /  11.1 km/h 56 % 0.00 in /  0 mm
09:59 30.1 °F /  -1.1 °C 16.3 °F /  -8.7 °C 30.11 in /  1019.5 hPa WNW 4.7 mph /  7.6 km/h 6.0 mph /  9.7 km/h 56 % 0.00 in /  0 mm
10:04 30.6 °F /  -0.8 °C 16.7 °F /  -8.5 °C 30.12 in /  1019.9 hPa WSW 3.8 mph /  6.1 km/h 10.4 mph /  16.7 km/h 56 % 0.00 in /  0 mm
10:09 30.9 °F /  -0.6 °C 17.0 °F /  -8.3 °C 30.12 in /  1019.9 hPa West 5.2 mph /  8.4 km/h 12.0 mph /  19.3 km/h 56 % 0.00 in /  0 mm
10:14 31.2 °F /  -0.4 °C 16.5 °F /  -8.6 °C 30.12 in /  1019.9 hPa WNW 6.0 mph /  9.7 km/h 9.2 mph /  14.8 km/h 54 % 0.00 in /  0 mm
10:19 31.4 °F /  -0.3 °C 16.2 °F /  -8.8 °C 30.12 in /  1019.9 hPa NNW 3.7 mph /  6 km/h 5.0 mph /  8 km/h 53 % 0.00 in /  0 mm
10:24 31.5 °F /  -0.3 °C 15.4 °F /  -9.2 °C 30.12 in /  1019.9 hPa WNW 5.7 mph /  9.2 km/h 11.0 mph /  17.7 km/h 51 % 0.00 in /  0 mm
10:29 31.5 °F /  -0.3 °C 15.9 °F /  -8.9 °C 30.13 in /  1020.2 hPa NW 5.4 mph /  8.7 km/h 8.1 mph /  13 km/h 52 % 0.00 in /  0 mm
10:34 31.5 °F /  -0.3 °C 15.4 °F /  -9.2 °C 30.12 in /  1019.9 hPa NNW 4.8 mph /  7.7 km/h 6.9 mph /  11.1 km/h 51 % 0.00 in /  0 mm
10:39 31.8 °F /  -0.1 °C 15.7 °F /  -9.1 °C 30.12 in /  1019.9 hPa NNW 3.4 mph /  5.5 km/h 10.4 mph /  16.7 km/h 51 % 0.00 in /  0 mm
10:44 32.0 °F /  0 °C 15.9 °F /  -8.9 °C 30.12 in /  1019.9 hPa NW 6.8 mph /  10.9 km/h 8.1 mph /  13 km/h 51 % 0.00 in /  0 mm
10:49 32.1 °F /  0.1 °C 15.5 °F /  -9.2 °C 30.12 in /  1019.9 hPa NW 5.3 mph /  8.5 km/h 8.1 mph /  13 km/h 50 % 0.00 in /  0 mm
10:54 32.0 °F /  0 °C 15.0 °F /  -9.4 °C 30.12 in /  1019.9 hPa NNW 5.5 mph /  8.9 km/h 8.1 mph /  13 km/h 49 % 0.00 in /  0 mm
10:59 31.8 °F /  -0.1 °C 13.8 °F /  -10.1 °C 30.12 in /  1019.9 hPa North 6.7 mph /  10.8 km/h 13.8 mph /  22.2 km/h 47 % 0.00 in /  0 mm
11:04 31.8 °F /  -0.1 °C 14.8 °F /  -9.6 °C 30.12 in /  1019.9 hPa WNW 5.3 mph /  8.5 km/h 7.0 mph /  11.3 km/h 49 % 0.00 in /  0 mm
11:10 32.0 °F /  0 °C 15.0 °F /  -9.4 °C 30.12 in /  1019.9 hPa North 3.9 mph /  6.3 km/h 10.4 mph /  16.7 km/h 49 % 0.00 in /  0 mm
11:15 32.1 °F /  0.1 °C 13.6 °F /  -10.2 °C 30.12 in /  1019.9 hPa NW 5.2 mph /  8.4 km/h 15.0 mph /  24.1 km/h 46 % 0.00 in /  0 mm
11:20 32.1 °F /  0.1 °C 12.6 °F /  -10.8 °C 30.12 in /  1019.9 hPa WNW 5.0 mph /  8 km/h 12.7 mph /  20.4 km/h 44 % 0.00 in /  0 mm
11:25 32.1 °F /  0.1 °C 12.6 °F /  -10.8 °C 30.12 in /  1019.9 hPa NNW 7.9 mph /  12.7 km/h 12.0 mph /  19.3 km/h 44 % 0.00 in /  0 mm
11:30 32.0 °F /  0 °C 12.5 °F /  -10.8 °C 30.12 in /  1019.9 hPa NNW 4.5 mph /  7.2 km/h 13.0 mph /  20.9 km/h 44 % 0.00 in /  0 mm
11:35 31.9 °F /  -0.1 °C 11.9 °F /  -11.2 °C 30.12 in /  1019.9 hPa NW 5.1 mph /  8.2 km/h 11.5 mph /  18.5 km/h 43 % 0.00 in /  0 mm
11:40 31.9 °F /  -0.1 °C 12.4 °F /  -10.9 °C 30.12 in /  1019.9 hPa NNE 4.7 mph /  7.6 km/h 8.1 mph /  13 km/h 44 % 0.00 in /  0 mm
11:45 31.8 °F /  -0.1 °C 11.8 °F /  -11.2 °C 30.12 in /  1019.9 hPa NNW 6.5 mph /  10.5 km/h 11.5 mph /  18.5 km/h 43 % 0.00 in /  0 mm
11:50 31.7 °F /  -0.2 °C 11.2 °F /  -11.6 °C 30.12 in /  1019.9 hPa North 5.5 mph /  8.9 km/h 10.4 mph /  16.7 km/h 42 % 0.00 in /  0 mm
11:55 31.7 °F /  -0.2 °C 11.7 °F /  -11.3 °C 30.12 in /  1019.9 hPa North 6.2 mph /  10 km/h 10.4 mph /  16.7 km/h 43 % 0.00 in /  0 mm
12:00 31.7 °F /  -0.2 °C 11.2 °F /  -11.6 °C 30.12 in /  1019.9 hPa North 6.9 mph /  11.1 km/h 11.5 mph /  18.5 km/h 42 % 0.00 in /  0 mm
12:05 31.7 °F /  -0.2 °C 12.2 °F /  -11 °C 30.11 in /  1019.5 hPa North 4.5 mph /  7.2 km/h 11.5 mph /  18.5 km/h 44 % 0.00 in /  0 mm
12:10 31.7 °F /  -0.2 °C 11.7 °F /  -11.3 °C 30.12 in /  1019.9 hPa North 6.6 mph /  10.6 km/h 11.5 mph /  18.5 km/h 43 % 0.00 in /  0 mm
12:15 31.9 °F /  -0.1 °C 11.4 °F /  -11.4 °C 30.12 in /  1019.9 hPa NW 5.5 mph /  8.9 km/h 12.0 mph /  19.3 km/h 42 % 0.00 in /  0 mm
12:20 32.1 °F /  0.1 °C 11.6 °F /  -11.3 °C 30.12 in /  1019.9 hPa NW 4.3 mph /  6.9 km/h 6.9 mph /  11.1 km/h 42 % 0.00 in /  0 mm
12:25 32.4 °F /  0.2 °C 11.8 °F /  -11.2 °C 30.12 in /  1019.9 hPa NNW 5.7 mph /  9.2 km/h 11.5 mph /  18.5 km/h 42 % 0.00 in /  0 mm
12:30 32.6 °F /  0.3 °C 10.3 °F /  -12.1 °C 30.12 in /  1019.9 hPa North 5.8 mph /  9.3 km/h 11.5 mph /  18.5 km/h 39 % 0.00 in /  0 mm
12:35 32.8 °F /  0.4 °C 10.5 °F /  -11.9 °C 30.12 in /  1019.9 hPa North 6.1 mph /  9.8 km/h 11.5 mph /  18.5 km/h 39 % 0.00 in /  0 mm
12:40 32.8 °F /  0.4 °C 9.9 °F /  -12.3 °C 30.12 in /  1019.9 hPa NNW 5.4 mph /  8.7 km/h 8.1 mph /  13 km/h 38 % 0.00 in /  0 mm
12:45 32.8 °F /  0.4 °C 9.9 °F /  -12.3 °C 30.12 in /  1019.9 hPa North 5.2 mph /  8.4 km/h 11.5 mph /  18.5 km/h 38 % 0.00 in /  0 mm
12:50 33.0 °F /  0.6 °C 11.3 °F /  -11.5 °C 30.12 in /  1019.9 hPa NNW 4.9 mph /  7.9 km/h 6.9 mph /  11.1 km/h 40 % 0.00 in /  0 mm
12:55 33.2 °F /  0.7 °C 10.3 °F /  -12.1 °C 30.12 in /  1019.9 hPa NW 3.8 mph /  6.1 km/h 10.4 mph /  16.7 km/h 38 % 0.00 in /  0 mm
13:00 33.4 °F /  0.8 °C 10.5 °F /  -11.9 °C 30.12 in /  1019.9 hPa NNW 7.3 mph /  11.7 km/h 11.5 mph /  18.5 km/h 38 % 0.00 in /  0 mm
13:05 33.5 °F /  0.8 °C 9.4 °F /  -12.6 °C 30.12 in /  1019.9 hPa NW 5.4 mph /  8.7 km/h 9.2 mph /  14.8 km/h 36 % 0.00 in /  0 mm
13:10 33.6 °F /  0.9 °C 10.1 °F /  -12.2 °C 30.11 in /  1019.5 hPa NNW 6.0 mph /  9.7 km/h 14.0 mph /  22.5 km/h 37 % 0.00 in /  0 mm
13:15 33.8 °F /  1 °C 10.8 °F /  -11.8 °C 30.11 in /  1019.5 hPa NNW 6.0 mph /  9.7 km/h 13.0 mph /  20.9 km/h 38 % 0.00 in /  0 mm
13:20 33.9 °F /  1.1 °C 10.3 °F /  -12.1 °C 30.11 in /  1019.5 hPa NNW 7.0 mph /  11.3 km/h 12.0 mph /  19.3 km/h 37 % 0.00 in /  0 mm
13:25 33.9 °F /  1.1 °C 9.1 °F /  -12.7 °C 30.11 in /  1019.5 hPa NNW 6.0 mph /  9.7 km/h 16.0 mph /  25.7 km/h 35 % 0.00 in /  0 mm
13:31 34.1 °F /  1.2 °C 9.9 °F /  -12.3 °C 30.11 in /  1019.5 hPa NW 5.0 mph /  8 km/h 14.0 mph /  22.5 km/h 36 % 0.00 in /  0 mm
13:36 34.1 °F /  1.2 °C 9.9 °F /  -12.3 °C 30.12 in /  1019.9 hPa NW 7.0 mph /  11.3 km/h 12.0 mph /  19.3 km/h 36 % 0.00 in /  0 mm
13:41 34.1 °F /  1.2 °C 9.9 °F /  -12.3 °C 30.12 in /  1019.9 hPa North 6.0 mph /  9.7 km/h 11.5 mph /  18.5 km/h 36 % 0.00 in /  0 mm
13:46 34.3 °F /  1.3 °C 10.0 °F /  -12.2 °C 30.13 in /  1020.2 hPa NNW 6.0 mph /  9.7 km/h 12.0 mph /  19.3 km/h 36 % 0.00 in /  0 mm
13:51 34.4 °F /  1.3 °C 9.5 °F /  -12.5 °C 30.13 in /  1020.2 hPa NW 3.0 mph /  4.8 km/h 8.0 mph /  12.9 km/h 35 % 0.00 in /  0 mm
13:56 34.5 °F /  1.4 °C 9.0 °F /  -12.8 °C 30.13 in /  1020.2 hPa NW 5.0 mph /  8 km/h 12.0 mph /  19.3 km/h 34 % 0.00 in /  0 mm
14:01 34.6 °F /  1.4 °C 9.7 °F /  -12.4 °C 30.13 in /  1020.2 hPa NW 5.9 mph /  9.5 km/h 11.5 mph /  18.5 km/h 35 % 0.00 in /  0 mm
14:06 34.7 °F /  1.5 °C 9.8 °F /  -12.3 °C 30.14 in /  1020.5 hPa NW 5.6 mph /  9 km/h 11.5 mph /  18.5 km/h 35 % 0.00 in /  0 mm
14:11 34.7 °F /  1.5 °C 9.8 °F /  -12.3 °C 30.14 in /  1020.5 hPa NNW 3.5 mph /  5.6 km/h 11.5 mph /  18.5 km/h 35 % 0.00 in /  0 mm
14:16 34.7 °F /  1.5 °C 8.5 °F /  -13.1 °C 30.14 in /  1020.5 hPa NNE 6.4 mph /  10.3 km/h 13.0 mph /  20.9 km/h 33 % 0.00 in /  0 mm
14:21 34.6 °F /  1.4 °C 9.7 °F /  -12.4 °C 30.14 in /  1020.5 hPa WNW 5.0 mph /  8 km/h 8.1 mph /  13 km/h 35 % 0.00 in /  0 mm
14:26 34.5 °F /  1.4 °C 9.6 °F /  -12.4 °C 30.14 in /  1020.5 hPa NNW 5.0 mph /  8 km/h 11.5 mph /  18.5 km/h 35 % 0.00 in /  0 mm
14:31 34.5 °F /  1.4 °C 9.0 °F /  -12.8 °C 30.14 in /  1020.5 hPa NNW 5.2 mph /  8.4 km/h 11.5 mph /  18.5 km/h 34 % 0.00 in /  0 mm
14:36 34.4 °F /  1.3 °C 10.2 °F /  -12.1 °C 30.14 in /  1020.5 hPa NNW 2.7 mph /  4.3 km/h 4.6 mph /  7.4 km/h 36 % 0.00 in /  0 mm
14:41 34.3 °F /  1.3 °C 8.1 °F /  -13.3 °C 30.14 in /  1020.5 hPa WNW 4.2 mph /  6.8 km/h 6.9 mph /  11.1 km/h 33 % 0.00 in /  0 mm
14:46 34.2 °F /  1.2 °C 8.0 °F /  -13.3 °C 30.14 in /  1020.5 hPa NW 5.4 mph /  8.7 km/h 7.0 mph /  11.3 km/h 33 % 0.00 in /  0 mm
14:51 34.1 °F /  1.2 °C 8.6 °F /  -13 °C 30.15 in /  1020.9 hPa West 2.9 mph /  4.7 km/h 8.1 mph /  13 km/h 34 % 0.00 in /  0 mm
14:56 33.9 °F /  1.1 °C 7.1 °F /  -13.8 °C 30.15 in /  1020.9 hPa WNW 2.9 mph /  4.7 km/h 5.8 mph /  9.3 km/h 32 % 0.00 in /  0 mm
15:01 33.8 °F /  1 °C 9.0 °F /  -12.8 °C 30.15 in /  1020.9 hPa NW 4.2 mph /  6.8 km/h 8.1 mph /  13 km/h 35 % 0.00 in /  0 mm
15:06 33.7 °F /  0.9 °C 8.3 °F /  -13.2 °C 30.15 in /  1020.9 hPa NW 2.9 mph /  4.7 km/h 8.0 mph /  12.9 km/h 34 % 0.00 in /  0 mm
15:11 33.5 °F /  0.8 °C 8.7 °F /  -12.9 °C 30.15 in /  1020.9 hPa NNW 5.3 mph /  8.5 km/h 11.0 mph /  17.7 km/h 35 % 0.00 in /  0 mm
15:16 33.4 °F /  0.8 °C 7.3 °F /  -13.7 °C 30.15 in /  1020.9 hPa NNW 5.6 mph /  9 km/h 9.2 mph /  14.8 km/h 33 % 0.00 in /  0 mm
15:21 33.4 °F /  0.8 °C 8.6 °F /  -13 °C 30.15 in /  1020.9 hPa NW 4.7 mph /  7.6 km/h 6.9 mph /  11.1 km/h 35 % 0.00 in /  0 mm
15:26 33.4 °F /  0.8 °C 7.3 °F /  -13.7 °C 30.15 in /  1020.9 hPa NW 6.4 mph /  10.3 km/h 9.2 mph /  14.8 km/h 33 % 0.00 in /  0 mm
15:31 33.4 °F /  0.8 °C 8.6 °F /  -13 °C 30.15 in /  1020.9 hPa NW 4.8 mph /  7.7 km/h 6.9 mph /  11.1 km/h 35 % 0.00 in /  0 mm
15:36 33.4 °F /  0.8 °C 8.6 °F /  -13 °C 30.15 in /  1020.9 hPa NNW 4.7 mph /  7.6 km/h 9.0 mph /  14.5 km/h 35 % 0.00 in /  0 mm
15:41 33.3 °F /  0.7 °C 9.8 °F /  -12.3 °C 30.15 in /  1020.9 hPa NNW 5.1 mph /  8.2 km/h 10.4 mph /  16.7 km/h 37 % 0.00 in /  0 mm
15:46 33.2 °F /  0.7 °C 9.1 °F /  -12.7 °C 30.15 in /  1020.9 hPa NNW 4.5 mph /  7.2 km/h 10.4 mph /  16.7 km/h 36 % 0.00 in /  0 mm
15:52 33.2 °F /  0.7 °C 9.1 °F /  -12.7 °C 30.16 in /  1021.2 hPa North 6.5 mph /  10.5 km/h 10.4 mph /  16.7 km/h 36 % 0.00 in /  0 mm
15:57 33.1 °F /  0.6 °C 7.7 °F /  -13.5 °C 30.16 in /  1021.2 hPa North 3.8 mph /  6.1 km/h 11.5 mph /  18.5 km/h 34 % 0.00 in /  0 mm
16:02 33.1 °F /  0.6 °C 8.4 °F /  -13.1 °C 30.16 in /  1021.2 hPa NNW 4.7 mph /  7.6 km/h 9.2 mph /  14.8 km/h 35 % 0.00 in /  0 mm
16:07 33.0 °F /  0.6 °C 8.3 °F /  -13.2 °C 30.17 in /  1021.6 hPa WNW 7.2 mph /  11.6 km/h 11.5 mph /  18.5 km/h 35 % 0.00 in /  0 mm
16:12 32.9 °F /  0.5 °C 6.9 °F /  -13.9 °C 30.17 in /  1021.6 hPa NW 4.4 mph /  7.1 km/h 9.2 mph /  14.8 km/h 33 % 0.00 in /  0 mm
16:17 32.9 °F /  0.5 °C 8.2 °F /  -13.2 °C 30.17 in /  1021.6 hPa North 6.0 mph /  9.7 km/h 11.5 mph /  18.5 km/h 35 % 0.00 in /  0 mm
16:22 32.8 °F /  0.4 °C 8.1 °F /  -13.3 °C 30.17 in /  1021.6 hPa NNW 3.7 mph /  6 km/h 7.0 mph /  11.3 km/h 35 % 0.00 in /  0 mm
16:27 32.8 °F /  0.4 °C 8.7 °F /  -12.9 °C 30.17 in /  1021.6 hPa WNW 4.1 mph /  6.6 km/h 9.2 mph /  14.8 km/h 36 % 0.00 in /  0 mm
16:32 32.7 °F /  0.4 °C 8.0 °F /  -13.3 °C 30.18 in /  1021.9 hPa NW 4.8 mph /  7.7 km/h 8.1 mph /  13 km/h 35 % 0.00 in /  0 mm
16:37 32.7 °F /  0.4 °C 8.0 °F /  -13.3 °C 30.18 in /  1021.9 hPa NNW 3.5 mph /  5.6 km/h 6.0 mph /  9.7 km/h 35 % 0.00 in /  0 mm
16:42 32.6 °F /  0.3 °C 9.8 °F /  -12.3 °C 30.18 in /  1021.9 hPa NW 6.7 mph /  10.8 km/h 11.5 mph /  18.5 km/h 38 % 0.00 in /  0 mm
16:47 32.5 °F /  0.3 °C 9.1 °F /  -12.7 °C 30.18 in /  1021.9 hPa NNW 4.0 mph /  6.4 km/h 6.0 mph /  9.7 km/h 37 % 0.00 in /  0 mm
16:52 32.4 °F /  0.2 °C 9.0 °F /  -12.8 °C 30.18 in /  1021.9 hPa NNW 4.0 mph /  6.4 km/h 8.1 mph /  13 km/h 37 % 0.00 in /  0 mm
16:57 32.3 °F /  0.2 °C 7.7 °F /  -13.5 °C 30.18 in /  1021.9 hPa NNW 3.6 mph /  5.8 km/h 9.2 mph /  14.8 km/h 35 % 0.00 in /  0 mm
17:02 32.3 °F /  0.2 °C 7.7 °F /  -13.5 °C 30.19 in /  1022.2 hPa NW 3.9 mph /  6.3 km/h 9.2 mph /  14.8 km/h 35 % 0.00 in /  0 mm
17:07 32.2 °F /  0.1 °C 6.9 °F /  -13.9 °C 30.18 in /  1021.9 hPa NW 2.2 mph /  3.5 km/h 5.8 mph /  9.3 km/h 34 % 0.00 in /  0 mm
17:12 32.2 °F /  0.1 °C 7.6 °F /  -13.6 °C 30.19 in /  1022.2 hPa NNW 2.3 mph /  3.7 km/h 4.6 mph /  7.4 km/h 35 % 0.00 in /  0 mm
17:17 32.1 °F /  0.1 °C 7.5 °F /  -13.6 °C 30.18 in /  1021.9 hPa NNW 5.0 mph /  8 km/h 5.8 mph /  9.3 km/h 35 % 0.00 in /  0 mm
17:22 32.1 °F /  0.1 °C 8.1 °F /  -13.3 °C 30.19 in /  1022.2 hPa NW 1.3 mph /  2.1 km/h 2.0 mph /  3.2 km/h 36 % 0.00 in /  0 mm
17:27 32.0 °F /  0 °C 8.6 °F /  -13 °C 30.19 in /  1022.2 hPa NW 2.6 mph /  4.2 km/h 3.5 mph /  5.6 km/h 37 % 0.00 in /  0 mm
17:32 31.9 °F /  -0.1 °C 7.9 °F /  -13.4 °C 30.19 in /  1022.2 hPa NW 5.4 mph /  8.7 km/h 8.1 mph /  13 km/h 36 % 0.00 in /  0 mm
17:37 31.9 °F /  -0.1 °C 7.9 °F /  -13.4 °C 30.20 in /  1022.6 hPa NNW 1.5 mph /  2.4 km/h 3.5 mph /  5.6 km/h 36 % 0.00 in /  0 mm
17:42 31.8 °F /  -0.1 °C 7.8 °F /  -13.4 °C 30.20 in /  1022.6 hPa WNW 4.0 mph /  6.4 km/h 4.6 mph /  7.4 km/h 36 % 0.00 in /  0 mm
17:48 31.7 °F /  -0.2 °C 8.4 °F /  -13.1 °C 30.21 in /  1022.9 hPa NNW 3.7 mph /  6 km/h 5.0 mph /  8 km/h 37 % 0.00 in /  0 mm
17:53 31.7 °F /  -0.2 °C 7.7 °F /  -13.5 °C 30.21 in /  1022.9 hPa WNW 1.8 mph /  2.9 km/h 9.2 mph /  14.8 km/h 36 % 0.00 in /  0 mm
17:58 31.7 °F /  -0.2 °C 9.0 °F /  -12.8 °C 30.22 in /  1023.2 hPa NW 5.9 mph /  9.5 km/h 10.0 mph /  16.1 km/h 38 % 0.00 in /  0 mm
18:03 31.7 °F /  -0.2 °C 8.4 °F /  -13.1 °C 30.22 in /  1023.2 hPa WNW 3.2 mph /  5.1 km/h 11.5 mph /  18.5 km/h 37 % 0.00 in /  0 mm
18:08 31.7 °F /  -0.2 °C 9.0 °F /  -12.8 °C 30.22 in /  1023.2 hPa North 6.4 mph /  10.3 km/h 11.5 mph /  18.5 km/h 38 % 0.00 in /  0 mm
18:13 31.7 °F /  -0.2 °C 9.5 °F /  -12.5 °C 30.23 in /  1023.6 hPa NNW 6.2 mph /  10 km/h 11.5 mph /  18.5 km/h 39 % 0.00 in /  0 mm
18:18 31.7 °F /  -0.2 °C 9.5 °F /  -12.5 °C 30.23 in /  1023.6 hPa NW 5.1 mph /  8.2 km/h 10.4 mph /  16.7 km/h 39 % 0.00 in /  0 mm
18:23 31.7 °F /  -0.2 °C 9.5 °F /  -12.5 °C 30.24 in /  1023.9 hPa WNW 7.8 mph /  12.6 km/h 18.4 mph /  29.6 km/h 39 % 0.00 in /  0 mm
18:28 31.7 °F /  -0.2 °C 10.1 °F /  -12.2 °C 30.24 in /  1023.9 hPa NW 3.2 mph /  5.1 km/h 9.2 mph /  14.8 km/h 40 % 0.00 in /  0 mm
18:33 31.7 °F /  -0.2 °C 10.1 °F /  -12.2 °C 30.24 in /  1023.9 hPa NW 4.2 mph /  6.8 km/h 10.0 mph /  16.1 km/h 40 % 0.00 in /  0 mm
18:38 31.7 °F /  -0.2 °C 10.1 °F /  -12.2 °C 30.24 in /  1023.9 hPa NW 4.6 mph /  7.4 km/h 6.9 mph /  11.1 km/h 40 % 0.00 in /  0 mm
18:43 31.6 °F /  -0.2 °C 10.6 °F /  -11.9 °C 30.25 in /  1024.3 hPa NW 8.1 mph /  13 km/h 16.1 mph /  25.9 km/h 41 % 0.00 in /  0 mm
18:48 31.6 °F /  -0.2 °C 8.9 °F /  -12.8 °C 30.25 in /  1024.3 hPa WNW 8.0 mph /  12.9 km/h 15.0 mph /  24.1 km/h 38 % 0.00 in /  0 mm
18:53 31.6 °F /  -0.2 °C 10.0 °F /  -12.2 °C 30.25 in /  1024.3 hPa NW 5.7 mph /  9.2 km/h 9.2 mph /  14.8 km/h 40 % 0.00 in /  0 mm
18:58 31.5 °F /  -0.3 °C 9.9 °F /  -12.3 °C 30.26 in /  1024.6 hPa WNW 6.0 mph /  9.7 km/h 11.5 mph /  18.5 km/h 40 % 0.00 in /  0 mm
19:03 31.5 °F /  -0.3 °C 9.9 °F /  -12.3 °C 30.26 in /  1024.6 hPa NNW 6.8 mph /  10.9 km/h 10.4 mph /  16.7 km/h 40 % 0.00 in /  0 mm
19:08 31.4 °F /  -0.3 °C 9.3 °F /  -12.6 °C 30.26 in /  1024.6 hPa NNW 6.7 mph /  10.8 km/h 11.5 mph /  18.5 km/h 39 % 0.00 in /  0 mm
19:13 31.3 °F /  -0.4 °C 9.2 °F /  -12.7 °C 30.26 in /  1024.6 hPa North 7.0 mph /  11.3 km/h 9.2 mph /  14.8 km/h 39 % 0.00 in /  0 mm
19:18 31.2 °F /  -0.4 °C 9.6 °F /  -12.4 °C 30.26 in /  1024.6 hPa WSW 3.8 mph /  6.1 km/h 11.5 mph /  18.5 km/h 40 % 0.00 in /  0 mm
19:23 31.2 °F /  -0.4 °C 9.6 °F /  -12.4 °C 30.27 in /  1024.9 hPa NW 4.0 mph /  6.4 km/h 9.2 mph /  14.8 km/h 40 % 0.00 in /  0 mm
19:28 31.2 °F /  -0.4 °C 8.5 °F /  -13.1 °C 30.27 in /  1024.9 hPa NNW 5.6 mph /  9 km/h 9.2 mph /  14.8 km/h 38 % 0.00 in /  0 mm
19:33 31.1 °F /  -0.5 °C 9.0 °F /  -12.8 °C 30.27 in /  1024.9 hPa NNW 5.8 mph /  9.3 km/h 9.2 mph /  14.8 km/h 39 % 0.00 in /  0 mm
19:39 31.0 °F /  -0.6 °C 8.9 °F /  -12.8 °C 30.27 in /  1024.9 hPa NW 5.0 mph /  8 km/h 9.2 mph /  14.8 km/h 39 % 0.00 in /  0 mm
19:44 31.0 °F /  -0.6 °C 8.3 °F /  -13.2 °C 30.28 in /  1025.3 hPa NW 3.2 mph /  5.1 km/h 4.6 mph /  7.4 km/h 38 % 0.00 in /  0 mm
19:49 30.8 °F /  -0.7 °C 7.6 °F /  -13.6 °C 30.28 in /  1025.3 hPa NW 3.9 mph /  6.3 km/h 8.1 mph /  13 km/h 37 % 0.00 in /  0 mm
19:54 30.8 °F /  -0.7 °C 8.1 °F /  -13.3 °C 30.28 in /  1025.3 hPa NW 4.4 mph /  7.1 km/h 10.4 mph /  16.7 km/h 38 % 0.00 in /  0 mm
19:59 30.7 °F /  -0.7 °C 9.2 °F /  -12.7 °C 30.28 in /  1025.3 hPa NW 4.3 mph /  6.9 km/h 11.5 mph /  18.5 km/h 40 % 0.00 in /  0 mm
20:04 30.6 °F /  -0.8 °C 8.5 °F /  -13.1 °C 30.28 in /  1025.3 hPa NW 3.5 mph /  5.6 km/h 9.2 mph /  14.8 km/h 39 % 0.00 in /  0 mm
20:09 30.6 °F /  -0.8 °C 8.5 °F /  -13.1 °C 30.27 in /  1024.9 hPa NNW 3.4 mph /  5.5 km/h 5.0 mph /  8 km/h 39 % 0.00 in /  0 mm
20:14 30.5 °F /  -0.8 °C 8.4 °F /  -13.1 °C 30.28 in /  1025.3 hPa NW 4.5 mph /  7.2 km/h 6.9 mph /  11.1 km/h 39 % 0.00 in /  0 mm
20:19 30.4 °F /  -0.9 °C 9.5 °F /  -12.5 °C 30.28 in /  1025.3 hPa North 2.1 mph /  3.4 km/h 6.0 mph /  9.7 km/h 41 % 0.00 in /  0 mm
20:24 30.3 °F /  -0.9 °C 9.9 °F /  -12.3 °C 30.29 in /  1025.6 hPa NNE 3.4 mph /  5.5 km/h 6.0 mph /  9.7 km/h 42 % 0.00 in /  0 mm
20:29 30.1 °F /  -1.1 °C 9.2 °F /  -12.7 °C 30.30 in /  1026 hPa North 5.2 mph /  8.4 km/h 6.9 mph /  11.1 km/h 41 % 0.00 in /  0 mm
20:34 29.9 °F /  -1.2 °C 9.0 °F /  -12.8 °C 30.29 in /  1025.6 hPa NNW 6.6 mph /  10.6 km/h 8.1 mph /  13 km/h 41 % 0.00 in /  0 mm
20:39 29.8 °F /  -1.2 °C 8.4 °F /  -13.1 °C 30.30 in /  1026 hPa NW 6.1 mph /  9.8 km/h 11.5 mph /  18.5 km/h 40 % 0.00 in /  0 mm
20:44 29.7 °F /  -1.3 °C 8.3 °F /  -13.2 °C 30.30 in /  1026 hPa NNW 6.3 mph /  10.1 km/h 9.2 mph /  14.8 km/h 40 % 0.00 in /  0 mm
20:49 29.6 °F /  -1.3 °C 8.2 °F /  -13.2 °C 30.30 in /  1026 hPa NNE 5.6 mph /  9 km/h 9.2 mph /  14.8 km/h 40 % 0.00 in /  0 mm
20:54 29.5 °F /  -1.4 °C 8.7 °F /  -12.9 °C 30.30 in /  1026 hPa NNE 4.0 mph /  6.4 km/h 8.0 mph /  12.9 km/h 41 % 0.00 in /  0 mm
20:59 29.4 °F /  -1.4 °C 8.0 °F /  -13.3 °C 30.30 in /  1026 hPa NNW 2.5 mph /  4 km/h 6.9 mph /  11.1 km/h 40 % 0.00 in /  0 mm
21:04 29.3 °F /  -1.5 °C 8.5 °F /  -13.1 °C 30.30 in /  1026 hPa North 3.4 mph /  5.5 km/h 4.0 mph /  6.4 km/h 41 % 0.00 in /  0 mm
21:09 29.2 °F /  -1.6 °C 8.4 °F /  -13.1 °C 30.31 in /  1026.3 hPa NNW 3.0 mph /  4.8 km/h 6.9 mph /  11.1 km/h 41 % 0.00 in /  0 mm
21:15 29.0 °F /  -1.7 °C 8.7 °F /  -12.9 °C 30.31 in /  1026.3 hPa NNE 4.7 mph /  7.6 km/h 9.2 mph /  14.8 km/h 42 % 0.00 in /  0 mm
21:20 28.9 °F /  -1.7 °C 8.1 °F /  -13.3 °C 30.31 in /  1026.3 hPa North 2.8 mph /  4.5 km/h 5.8 mph /  9.3 km/h 41 % 0.00 in /  0 mm
21:25 28.8 °F /  -1.8 °C 8.0 °F /  -13.3 °C 30.31 in /  1026.3 hPa NNW 2.1 mph /  3.4 km/h 9.2 mph /  14.8 km/h 41 % 0.00 in /  0 mm
21:30 28.8 °F /  -1.8 °C 8.0 °F /  -13.3 °C 30.32 in /  1026.6 hPa NNE 1.8 mph /  2.9 km/h 4.6 mph /  7.4 km/h 41 % 0.00 in /  0 mm
21:35 28.7 °F /  -1.8 °C 7.9 °F /  -13.4 °C 30.32 in /  1026.6 hPa NW 3.4 mph /  5.5 km/h 5.8 mph /  9.3 km/h 41 % 0.00 in /  0 mm
21:40 28.6 °F /  -1.9 °C 7.8 °F /  -13.4 °C 30.32 in /  1026.6 hPa North 1.2 mph /  1.9 km/h 3.5 mph /  5.6 km/h 41 % 0.00 in /  0 mm
21:45 28.5 °F /  -1.9 °C 8.3 °F /  -13.2 °C 30.32 in /  1026.6 hPa North 0.4 mph /  0.6 km/h 2.3 mph /  3.7 km/h 42 % 0.00 in /  0 mm
21:50 28.4 °F /  -2 °C 7.7 °F /  -13.5 °C 30.32 in /  1026.6 hPa North 2.1 mph /  3.4 km/h 5.0 mph /  8 km/h 41 % 0.00 in /  0 mm
21:55 28.4 °F /  -2 °C 7.7 °F /  -13.5 °C 30.32 in /  1026.6 hPa NNW 1.5 mph /  2.4 km/h 3.5 mph /  5.6 km/h 41 % 0.00 in /  0 mm
22:00 28.3 °F /  -2.1 °C 7.6 °F /  -13.6 °C 30.32 in /  1026.6 hPa North 2.5 mph /  4 km/h 6.9 mph /  11.1 km/h 41 % 0.00 in /  0 mm
22:05 28.3 °F /  -2.1 °C 7.0 °F /  -13.9 °C 30.32 in /  1026.6 hPa NW 2.8 mph /  4.5 km/h 5.8 mph /  9.3 km/h 40 % 0.00 in /  0 mm
22:10 28.2 °F /  -2.1 °C 6.4 °F /  -14.2 °C 30.32 in /  1026.6 hPa North 4.1 mph /  6.6 km/h 8.1 mph /  13 km/h 39 % 0.00 in /  0 mm
22:15 28.2 °F /  -2.1 °C 6.4 °F /  -14.2 °C 30.32 in /  1026.6 hPa North 3.6 mph /  5.8 km/h 4.6 mph /  7.4 km/h 39 % 0.00 in /  0 mm
22:20 28.1 °F /  -2.2 °C 7.4 °F /  -13.7 °C 30.32 in /  1026.6 hPa North 4.0 mph /  6.4 km/h 6.9 mph /  11.1 km/h 41 % 0.00 in /  0 mm
22:25 28.0 °F /  -2.2 °C 7.3 °F /  -13.7 °C 30.31 in /  1026.3 hPa NNE 3.6 mph /  5.8 km/h 5.8 mph /  9.3 km/h 41 % 0.00 in /  0 mm
22:30 28.0 °F /  -2.2 °C 7.3 °F /  -13.7 °C 30.31 in /  1026.3 hPa NNE 2.7 mph /  4.3 km/h 6.9 mph /  11.1 km/h 41 % 0.00 in /  0 mm
22:36 27.9 °F /  -2.3 °C 7.2 °F /  -13.8 °C 30.31 in /  1026.3 hPa NNE 5.0 mph /  8 km/h 8.1 mph /  13 km/h 41 % 0.00 in /  0 mm
22:41 27.9 °F /  -2.3 °C 7.2 °F /  -13.8 °C 30.31 in /  1026.3 hPa NNE 3.0 mph /  4.8 km/h 6.0 mph /  9.7 km/h 41 % 0.00 in /  0 mm
22:46 27.8 °F /  -2.3 °C 7.1 °F /  -13.8 °C 30.31 in /  1026.3 hPa NNE 5.0 mph /  8 km/h 7.0 mph /  11.3 km/h 41 % 0.00 in /  0 mm
22:51 27.8 °F /  -2.3 °C 7.1 °F /  -13.8 °C 30.32 in /  1026.6 hPa NNE 5.0 mph /  8 km/h 7.0 mph /  11.3 km/h 41 % 0.00 in /  0 mm
22:56 27.7 °F /  -2.4 °C 7.1 °F /  -13.8 °C 30.33 in /  1027 hPa North 2.0 mph /  3.2 km/h 5.0 mph /  8 km/h 41 % 0.00 in /  0 mm
23:01 27.7 °F /  -2.4 °C 5.9 °F /  -14.5 °C 30.33 in /  1027 hPa NNW 3.4 mph /  5.5 km/h 4.6 mph /  7.4 km/h 39 % 0.00 in /  0 mm
23:06 27.8 °F /  -2.3 °C 6.0 °F /  -14.4 °C 30.32 in /  1026.6 hPa NNW 1.1 mph /  1.8 km/h 3.5 mph /  5.6 km/h 39 % 0.00 in /  0 mm
23:11 27.9 °F /  -2.3 °C 6.7 °F /  -14.1 °C 30.32 in /  1026.6 hPa NNW 1.4 mph /  2.3 km/h 3.5 mph /  5.6 km/h 40 % 0.00 in /  0 mm
23:16 27.9 °F /  -2.3 °C 6.7 °F /  -14.1 °C 30.33 in /  1027 hPa North 0.6 mph /  1 km/h 4.6 mph /  7.4 km/h 40 % 0.00 in /  0 mm
23:21 27.9 °F /  -2.3 °C 7.2 °F /  -13.8 °C 30.32 in /  1026.6 hPa North 1.0 mph /  1.6 km/h 2.3 mph /  3.7 km/h 41 % 0.00 in /  0 mm
23:26 27.9 °F /  -2.3 °C 6.7 °F /  -14.1 °C 30.32 in /  1026.6 hPa North 1.2 mph /  1.9 km/h 2.3 mph /  3.7 km/h 40 % 0.00 in /  0 mm
23:31 27.9 °F /  -2.3 °C 6.7 °F /  -14.1 °C 30.32 in /  1026.6 hPa North 2.5 mph /  4 km/h 3.5 mph /  5.6 km/h 40 % 0.00 in /  0 mm
23:36 28.0 °F /  -2.2 °C 7.3 °F /  -13.7 °C 30.32 in /  1026.6 hPa North 0.1 mph /  0.2 km/h 1.0 mph /  1.6 km/h 41 % 0.00 in /  0 mm
23:41 28.0 °F /  -2.2 °C 7.3 °F /  -13.7 °C 30.33 in /  1027 hPa North 0.6 mph /  1 km/h 2.3 mph /  3.7 km/h 41 % 0.00 in /  0 mm
23:46 28.0 °F /  -2.2 °C 6.8 °F /  -14 °C 30.33 in /  1027 hPa North 1.3 mph /  2.1 km/h 3.5 mph /  5.6 km/h 40 % 0.00 in /  0 mm
23:51 28.0 °F /  -2.2 °C 7.3 °F /  -13.7 °C 30.33 in /  1027 hPa North 0.8 mph /  1.3 km/h 3.5 mph /  5.6 km/h 41 % 0.00 in /  0 mm
23:56 28.0 °F /  -2.2 °C 7.3 °F /  -13.7 °C 30.33 in /  1027 hPa North 3.4 mph /  5.5 km/h 6.0 mph /  9.7 km/h 41 % 0.00 in /  0 mm
Crab Meadow Weather
Compliments of Weather Underground - 3 mb

Script developed by  Jim McMurry - jmcmurry@mwt.net Adapted for the template by  Wim van der Kuil - Leuven-Template.eu

Weather Terms: Heavy Sleet Warning - Accumulations of 1/2 inch or more of sleet.